Terminal Aerodrome Forecast
Issued by NWS North Platte, NE

Home | Current Version | Previous Version | Text Only | Print | Product List | Glossary On
Versions: 1 2 3 4 5 6 7 8 9 10 11 12 13 14
785
FTUS43 KLBF 091739
TAFLBF
TAF
KLBF 091739Z 0918/1018 18010KT P6SM BKN070
     FM092300 VRB03KT P6SM SCT120
     FM100600 VRB03KT P6SM BKN025
     FM101300 13006KT P6SM BKN035=

USA.gov is the U.S. government's official web portal to all federal, state and local government web resources and services.